createdAt,value
2018-08-19T00:02:21.381Z,54.34
2018-08-19T00:05:15.936Z,52.69
2018-08-19T00:07:45.953Z,51.98
2018-08-19T00:10:15.471Z,52.81
2018-08-19T00:12:47.858Z,54.10
2018-08-19T00:15:17.311Z,57.64
2018-08-19T00:17:46.681Z,52.82
2018-08-19T00:20:16.077Z,55.62
2018-08-19T00:22:46.107Z,56.62
2018-08-19T00:25:30.900Z,56.84
2018-08-19T00:28:00.252Z,56.81
2018-08-19T00:30:31.835Z,55.56
2018-08-19T00:33:01.581Z,55.63
2018-08-19T00:35:31.725Z,53.98
2018-08-19T00:38:01.221Z,54.67
2018-08-19T00:40:30.925Z,54.75
2018-08-19T00:43:00.729Z,54.51
2018-08-19T00:45:30.223Z,54.52
2018-08-19T00:47:59.557Z,55.44
2018-08-19T00:50:29.026Z,54.06
2018-08-19T00:52:58.381Z,54.81
2018-08-19T00:55:31.789Z,54.06
2018-08-19T00:58:01.164Z,57.28
2018-08-19T01:00:30.603Z,55.99
2018-08-19T01:02:59.999Z,58.28
2018-08-19T01:05:29.393Z,60.88
2018-08-19T01:07:58.750Z,60.58
2018-08-19T01:10:28.232Z,60.99
2018-08-19T01:12:57.595Z,58.59
2018-08-19T01:15:27.008Z,59.32
2018-08-19T01:17:57.542Z,56.50
2018-08-19T01:20:26.916Z,61.81
2018-08-19T01:22:56.288Z,59.84
2018-08-19T01:25:25.733Z,57.64
2018-08-19T01:27:55.108Z,61.20
2018-08-19T01:30:26.344Z,61.65
2018-08-19T01:32:55.709Z,61.55
2018-08-19T01:35:30.312Z,58.49
2018-08-19T01:37:59.710Z,59.53
2018-08-19T01:40:29.136Z,59.35
2018-08-19T01:42:58.497Z,58.76
2018-08-19T01:45:27.924Z,59.25
2018-08-19T01:47:57.282Z,61.05
2018-08-19T01:50:26.741Z,60.22
2018-08-19T01:52:56.126Z,61.11
2018-08-19T01:55:25.560Z,61.65
2018-08-19T01:57:56.799Z,60.79
2018-08-19T02:00:26.185Z,60.50
2018-08-19T02:03:05.541Z,59.72
2018-08-19T02:05:34.901Z,60.63
2018-08-19T02:08:05.209Z,62.16
2018-08-19T02:10:35.520Z,63.46
2018-08-19T02:13:04.989Z,63.22
2018-08-19T02:15:34.372Z,61.72
2018-08-19T02:18:05.070Z,59.41
2018-08-19T02:20:38.129Z,60.05
2018-08-19T02:23:09.354Z,59.44
2018-08-19T02:25:42.370Z,58.34
2018-08-19T02:28:12.604Z,58.63
2018-08-19T02:30:51.624Z,58.19
2018-08-19T02:33:22.292Z,58.05
2018-08-19T02:35:55.777Z,58.13
2018-08-19T02:38:25.582Z,59.10
2018-08-19T02:40:55.237Z,60.55
2018-08-19T02:43:24.602Z,59.60
2018-08-19T02:45:54.032Z,58.19
2018-08-19T02:48:44.481Z,60.19
2018-08-19T02:51:15.820Z,60.76
2018-08-19T02:53:46.373Z,59.08
2018-08-19T02:56:16.373Z,63.64
2018-08-19T02:58:46.813Z,61.09
2018-08-19T03:01:17.115Z,61.03
2018-08-19T03:03:46.463Z,62.07
2018-08-19T03:06:15.803Z,63.42
2018-08-19T03:08:50.196Z,60.52
2018-08-19T03:11:21.521Z,65.18
2018-08-19T03:13:50.909Z,64.31
2018-08-19T03:16:20.247Z,65.67
2018-08-19T03:18:51.812Z,67.14
2018-08-19T03:21:22.175Z,63.68
2018-08-19T03:23:52.901Z,67.25
2018-08-19T03:26:22.230Z,66.85
2018-08-19T03:28:51.560Z,66.68
2018-08-19T03:31:20.888Z,67.18
2018-08-19T03:33:50.220Z,65.13
2018-08-19T03:36:19.564Z,65.86
2018-08-19T03:38:48.933Z,65.48
2018-08-19T03:41:18.288Z,62.45
2018-08-19T03:43:51.718Z,62.86
2018-08-19T03:46:21.546Z,64.63
2018-08-19T03:48:51.230Z,59.81
2018-08-19T03:51:20.577Z,61.69
2018-08-19T03:53:49.964Z,64.02
2018-08-19T03:56:24.670Z,66.02
2018-08-19T03:58:57.648Z,65.87
2018-08-19T04:01:43.057Z,65.39
2018-08-19T04:04:14.484Z,66.75
2018-08-19T04:06:44.237Z,68.30
2018-08-19T04:09:13.597Z,67.89
2018-08-19T04:11:43.016Z,63.92
2018-08-19T04:14:31.336Z,66.00
2018-08-19T04:17:01.769Z,67.50
2018-08-19T04:19:31.417Z,67.72
2018-08-19T04:22:02.827Z,66.34
2018-08-19T04:24:32.533Z,67.23
2018-08-19T04:27:09.068Z,67.64
2018-08-19T04:29:38.606Z,68.76
2018-08-19T04:32:19.452Z,66.35
2018-08-19T04:34:48.781Z,68.04
2018-08-19T04:37:18.238Z,68.29
2018-08-19T04:39:47.554Z,66.09
2018-08-19T04:42:16.931Z,67.63
2018-08-19T04:44:46.225Z,68.50
2018-08-19T04:47:28.745Z,69.45
2018-08-19T04:49:58.073Z,67.54
2018-08-19T04:52:27.448Z,64.85
2018-08-19T04:54:57.411Z,66.21
2018-08-19T04:57:26.859Z,65.54
2018-08-19T04:59:56.189Z,67.07
2018-08-19T05:02:25.548Z,67.91
2018-08-19T05:04:55.002Z,67.55
2018-08-19T05:07:24.280Z,66.33
2018-08-19T05:09:53.650Z,64.98
2018-08-19T05:12:22.971Z,64.56
2018-08-19T05:14:52.353Z,67.20
2018-08-19T05:17:21.685Z,65.69
2018-08-19T05:19:52.297Z,66.40
2018-08-19T05:22:21.646Z,65.73
2018-08-19T05:24:50.994Z,65.83
2018-08-19T05:27:20.321Z,65.93
2018-08-19T05:29:49.672Z,66.82
2018-08-19T05:32:19.010Z,66.32
2018-08-19T05:34:48.401Z,66.09
2018-08-19T05:37:17.750Z,65.42
2018-08-19T05:39:51.198Z,64.33
2018-08-19T05:42:20.484Z,64.25
2018-08-19T05:44:49.917Z,64.55
2018-08-19T05:47:19.293Z,64.45
2018-08-19T05:49:49.397Z,64.08
2018-08-19T05:52:19.826Z,64.42
2018-08-19T05:54:54.479Z,64.08
2018-08-19T05:57:23.861Z,63.47
2018-08-19T05:59:54.370Z,63.49
2018-08-19T06:02:30.942Z,60.67
2018-08-19T06:05:01.529Z,59.92
2018-08-19T06:07:31.132Z,58.44
2018-08-19T06:10:00.585Z,57.17
2018-08-19T06:12:30.000Z,56.29
2018-08-19T06:15:00.525Z,56.54
2018-08-19T06:17:29.969Z,55.44
2018-08-19T06:19:59.302Z,54.72
2018-08-19T06:22:39.078Z,55.46
2018-08-19T06:25:08.780Z,54.82
2018-08-19T06:27:43.918Z,54.95
2018-08-19T06:30:14.037Z,55.50
2018-08-19T06:32:43.512Z,53.22
2018-08-19T06:35:12.822Z,53.85
2018-08-19T06:37:42.279Z,53.63
2018-08-19T06:40:13.774Z,52.98
2018-08-19T06:42:43.137Z,52.05
2018-08-19T06:45:13.093Z,52.97
2018-08-19T06:47:42.605Z,53.25
2018-08-19T06:50:25.327Z,51.94
2018-08-19T06:52:55.551Z,51.25
2018-08-19T06:55:25.081Z,51.92
2018-08-19T06:57:59.108Z,51.55
2018-08-19T07:00:30.818Z,50.50
2018-08-19T07:03:04.225Z,50.03
2018-08-19T07:05:34.346Z,49.90
2018-08-19T07:08:03.820Z,50.10
2018-08-19T07:10:36.528Z,49.63
2018-08-19T07:13:08.725Z,48.68
2018-08-19T07:15:39.478Z,49.12
2018-08-19T07:18:11.259Z,48.78
2018-08-19T07:20:41.820Z,48.50
2018-08-19T07:23:11.713Z,49.38
2018-08-19T07:25:43.494Z,49.04
2018-08-19T07:28:14.618Z,48.38
2018-08-19T07:30:44.362Z,48.34
2018-08-19T07:33:14.257Z,48.83
2018-08-19T07:35:43.808Z,48.53
2018-08-19T07:38:13.162Z,47.74
2018-08-19T07:40:42.630Z,46.69
2018-08-19T07:43:11.998Z,46.08
2018-08-19T07:45:41.425Z,46.40
2018-08-19T07:48:10.805Z,50.54
2018-08-19T07:50:40.211Z,50.76
2018-08-19T07:53:09.556Z,50.16
2018-08-19T07:55:38.910Z,49.85
2018-08-19T07:58:08.270Z,49.37
2018-08-19T08:00:40.451Z,49.36
2018-08-19T08:03:10.362Z,48.47
2018-08-19T08:05:44.961Z,47.44
2018-08-19T08:08:14.322Z,47.33
2018-08-19T08:10:44.191Z,49.30
2018-08-19T08:13:14.005Z,47.89
2018-08-19T08:15:48.718Z,46.92
2018-08-19T08:18:18.120Z,46.63
2018-08-19T08:20:47.484Z,46.97
2018-08-19T08:23:24.127Z,46.15
2018-08-19T08:25:53.462Z,45.93
2018-08-19T08:28:22.864Z,45.40
2018-08-19T08:30:52.213Z,44.72
2018-08-19T08:33:21.728Z,45.08
2018-08-19T08:35:57.200Z,44.33
2018-08-19T08:38:26.775Z,43.26
2018-08-19T08:40:56.209Z,44.04
2018-08-19T08:43:25.565Z,43.21
2018-08-19T08:45:57.627Z,43.20
2018-08-19T08:48:27.354Z,43.43
2018-08-19T08:50:57.173Z,42.48
2018-08-19T08:53:34.557Z,42.99
2018-08-19T08:56:04.463Z,42.34
2018-08-19T08:58:34.385Z,42.25
2018-08-19T09:01:03.881Z,40.97
2018-08-19T09:03:33.341Z,37.50
2018-08-19T09:06:05.019Z,35.29
2018-08-19T09:08:35.887Z,34.75
2018-08-19T09:11:08.423Z,37.76
2018-08-19T09:13:38.592Z,38.77
2018-08-19T09:16:09.345Z,33.74
2018-08-19T09:18:40.702Z,33.37
2018-08-19T09:21:12.330Z,35.83
2018-08-19T09:23:43.337Z,33.74
2018-08-19T09:26:14.136Z,31.55
2018-08-19T09:28:44.414Z,32.08
2018-08-19T09:31:16.282Z,32.77
2018-08-19T09:33:50.642Z,32.42
2018-08-19T09:36:21.393Z,32.10
2018-08-19T09:38:51.365Z,33.27
2018-08-19T09:41:21.160Z,32.99
2018-08-19T09:43:51.037Z,33.11
2018-08-19T09:46:20.844Z,32.35
2018-08-19T09:48:50.638Z,33.06
2018-08-19T09:51:20.545Z,32.73
2018-08-19T09:53:50.511Z,32.90
2018-08-19T09:56:22.943Z,32.59
2018-08-19T09:58:57.926Z,32.05
2018-08-19T10:01:33.157Z,31.96
2018-08-19T10:04:08.099Z,31.85
2018-08-19T10:06:39.839Z,31.73
2018-08-19T10:09:10.500Z,32.26
2018-08-19T10:11:42.004Z,32.17
2018-08-19T10:21:42.123Z,30.73
2018-08-19T10:24:26.227Z,31.76
2018-08-19T10:26:57.078Z,32.08
2018-08-19T10:32:26.115Z,32.02
2018-08-19T10:35:05.284Z,31.60
2018-08-19T10:37:37.286Z,31.64
2018-08-19T10:40:07.115Z,31.27
2018-08-19T10:42:36.335Z,31.42
2018-08-19T10:45:12.851Z,31.79
2018-08-19T10:47:42.042Z,31.03
2018-08-19T10:50:11.277Z,30.76
2018-08-19T10:52:42.115Z,30.83
2018-08-19T10:55:12.481Z,30.11
2018-08-19T10:57:41.703Z,29.76
2018-08-19T11:00:15.390Z,30.16
2018-08-19T11:02:44.573Z,31.28
2018-08-19T11:05:13.739Z,31.50
2018-08-19T11:07:42.935Z,30.61
2018-08-19T11:10:19.284Z,31.25
2018-08-19T11:12:52.289Z,29.95
2018-08-19T11:15:46.710Z,29.36
2018-08-19T11:18:31.503Z,29.08
2018-08-19T11:21:04.689Z,28.61
2018-08-19T11:23:37.741Z,28.07
2018-08-19T11:26:08.082Z,28.99
2018-08-19T11:28:49.668Z,29.83
2018-08-19T11:31:25.287Z,29.42
2018-08-19T11:34:25.928Z,28.26
2018-08-19T11:36:55.276Z,28.30
2018-08-19T11:39:29.717Z,28.29
2018-08-19T11:41:59.809Z,29.08
2018-08-19T11:44:29.247Z,27.76
2018-08-19T11:46:58.590Z,27.92
2018-08-19T11:49:27.987Z,27.29
2018-08-19T11:52:01.826Z,26.91
2018-08-19T11:54:31.830Z,26.88
2018-08-19T11:57:06.825Z,27.32
2018-08-19T11:59:39.137Z,25.95
2018-08-19T12:02:11.089Z,26.96
2018-08-19T12:04:40.369Z,26.48
2018-08-19T12:07:09.752Z,26.95
2018-08-19T12:09:42.982Z,26.83
2018-08-19T12:12:12.386Z,27.44
2018-08-19T12:14:41.784Z,26.95
2018-08-19T12:17:12.651Z,26.83
2018-08-19T12:19:43.782Z,27.76
2018-08-19T12:22:13.220Z,26.12
2018-08-19T12:24:43.708Z,27.85
2018-08-19T12:27:14.504Z,25.42
2018-08-19T12:29:44.463Z,27.49
2018-08-19T12:32:22.876Z,28.16
2018-08-19T12:34:53.408Z,27.93
2018-08-19T12:37:23.987Z,26.40
2018-08-19T12:39:53.859Z,25.62
2018-08-19T12:42:23.362Z,26.35
2018-08-19T12:45:14.527Z,23.93
2018-08-19T12:47:43.858Z,24.99
2018-08-19T12:50:15.561Z,24.44
2018-08-19T12:52:45.033Z,23.53
2018-08-19T12:55:16.083Z,24.79
2018-08-19T12:57:45.799Z,24.36
2018-08-19T13:00:19.385Z,25.13
2018-08-19T13:02:50.612Z,24.48
2018-08-19T13:05:20.540Z,24.03
2018-08-19T13:07:49.922Z,24.34
2018-08-19T13:10:19.452Z,23.91
2018-08-19T13:12:54.045Z,25.07
2018-08-19T13:15:24.922Z,26.19
2018-08-19T13:17:54.263Z,24.73
2018-08-19T13:20:23.694Z,25.21
2018-08-19T13:22:58.352Z,23.50
2018-08-19T13:25:27.837Z,24.91
2018-08-19T13:27:57.188Z,27.93
2018-08-19T13:30:26.495Z,25.92
2018-08-19T13:32:55.888Z,24.83
2018-08-19T13:35:25.208Z,23.60
2018-08-19T13:37:54.596Z,24.26
2018-08-19T13:40:23.925Z,24.44
2018-08-19T13:42:53.245Z,25.46
2018-08-19T13:45:23.350Z,26.00
2018-08-19T13:47:54.105Z,23.96
2018-08-19T13:50:23.469Z,24.04
2018-08-19T13:52:52.863Z,27.14
2018-08-19T13:55:22.232Z,28.21
2018-08-19T13:57:51.680Z,27.68
2018-08-19T14:00:23.001Z,26.02
2018-08-19T14:02:52.680Z,24.62
2018-08-19T14:05:22.045Z,23.89
2018-08-19T14:07:51.446Z,24.16
2018-08-19T14:10:20.880Z,23.44
2018-08-19T14:12:50.252Z,24.19
2018-08-19T14:15:19.604Z,24.36
2018-08-19T14:17:49.036Z,24.85
2018-08-19T14:20:18.390Z,25.70
2018-08-19T14:22:47.765Z,24.94
2018-08-19T14:25:17.120Z,23.33
2018-08-19T14:27:46.579Z,23.29
2018-08-19T14:30:16.021Z,25.35
2018-08-19T14:32:46.530Z,26.63
2018-08-19T14:35:15.906Z,26.95
2018-08-19T14:37:45.301Z,26.89
2018-08-19T14:40:18.678Z,26.58
2018-08-19T14:42:48.036Z,26.92
2018-08-19T14:45:17.364Z,26.31
2018-08-19T14:47:46.784Z,27.06
2018-08-19T14:50:18.714Z,25.09
2018-08-19T14:52:48.220Z,25.93
2018-08-19T14:55:17.540Z,27.43
2018-08-19T14:57:46.949Z,28.15
2018-08-19T15:00:17.536Z,26.27
2018-08-19T15:02:46.932Z,28.03
2018-08-19T15:05:19.564Z,27.84
2018-08-19T15:07:49.344Z,26.68
2018-08-19T15:10:25.023Z,28.86
2018-08-19T15:12:54.605Z,29.17
2018-08-19T15:15:24.020Z,28.97
2018-08-19T15:17:58.617Z,27.71
2018-08-19T15:20:33.307Z,26.65
2018-08-19T15:23:21.807Z,27.12
2018-08-19T15:25:51.178Z,29.73
2018-08-19T15:28:20.525Z,29.81
2018-08-19T15:30:49.846Z,30.05
2018-08-19T15:33:19.876Z,28.10
2018-08-19T15:35:49.195Z,25.60
2018-08-19T15:38:18.576Z,25.58
2018-08-19T15:40:49.516Z,24.92
2018-08-19T15:43:18.904Z,25.85
2018-08-19T15:45:48.339Z,25.82
2018-08-19T15:48:17.738Z,26.92
2018-08-19T15:50:47.109Z,26.78
2018-08-19T15:53:18.598Z,27.75
2018-08-19T15:55:48.095Z,30.43
2018-08-19T15:58:17.504Z,27.91
2018-08-19T16:00:46.845Z,27.45
2018-08-19T16:03:16.328Z,29.48
2018-08-19T16:05:45.678Z,28.72
2018-08-19T16:08:15.133Z,25.06
2018-08-19T16:10:44.510Z,25.90
2018-08-19T16:13:13.913Z,29.02
2018-08-19T16:15:43.273Z,26.66
2018-08-19T16:18:12.729Z,25.26
2018-08-19T16:20:49.220Z,26.71
2018-08-19T16:23:18.628Z,26.74
2018-08-19T16:25:48.097Z,26.37
2018-08-19T16:28:17.481Z,24.35
2018-08-19T16:30:46.883Z,25.79
2018-08-19T16:33:16.231Z,24.66
2018-08-19T16:35:45.711Z,24.89
2018-08-19T16:38:15.066Z,25.06
2018-08-19T16:40:44.521Z,27.80
2018-08-19T16:43:13.893Z,26.62
2018-08-19T16:45:43.317Z,25.31
2018-08-19T16:48:12.749Z,26.93
2018-08-19T16:50:42.262Z,26.71
2018-08-19T16:53:11.509Z,26.79
2018-08-19T16:55:40.921Z,26.28
2018-08-19T16:58:10.239Z,28.31
2018-08-19T17:00:39.760Z,26.78
2018-08-19T17:03:30.027Z,27.45
2018-08-19T17:05:59.336Z,29.26
2018-08-19T17:08:28.857Z,29.37
2018-08-19T17:10:58.289Z,30.55
2018-08-19T17:13:27.589Z,30.96
2018-08-19T17:15:56.910Z,28.43
2018-08-19T17:18:26.278Z,30.09
2018-08-19T17:20:55.629Z,30.90
2018-08-19T17:23:25.557Z,32.51
2018-08-19T17:25:54.885Z,33.08
2018-08-19T17:28:25.524Z,32.88
2018-08-19T17:30:55.449Z,33.61
2018-08-19T17:33:28.154Z,32.81
2018-08-19T17:35:57.499Z,33.93
2018-08-19T17:38:33.235Z,34.45
2018-08-19T17:41:02.985Z,34.39
2018-08-19T17:43:37.615Z,34.71
2018-08-19T17:46:12.592Z,34.13
2018-08-19T17:48:42.870Z,34.16
2018-08-19T17:51:27.394Z,34.33
2018-08-19T17:53:56.773Z,34.65
2018-08-19T17:56:26.156Z,34.50
2018-08-19T17:58:55.544Z,35.25
2018-08-19T18:01:25.006Z,35.23
2018-08-19T18:03:54.324Z,35.47
2018-08-19T18:06:23.824Z,36.57
2018-08-19T18:08:53.851Z,35.35
2018-08-19T18:11:23.377Z,35.54
2018-08-19T18:13:52.717Z,36.06
2018-08-19T18:16:22.133Z,37.66
2018-08-19T18:18:51.560Z,36.39
2018-08-19T18:21:20.932Z,37.09
2018-08-19T18:23:50.292Z,36.78
2018-08-19T18:26:19.724Z,37.41
2018-08-19T18:28:49.389Z,37.20
2018-08-19T18:31:21.593Z,38.35
2018-08-19T18:33:56.286Z,38.25
2018-08-19T18:36:26.718Z,37.39
2018-08-19T18:38:56.652Z,37.77
2018-08-19T18:41:31.355Z,38.39
2018-08-19T18:44:02.854Z,37.90
2018-08-19T18:46:32.827Z,39.92
2018-08-19T18:49:20.444Z,39.52
2018-08-19T18:51:52.156Z,39.47
2018-08-19T18:54:29.822Z,38.34
2018-08-19T18:57:06.445Z,39.14
2018-08-19T18:59:35.881Z,40.66
2018-08-19T19:02:05.394Z,40.02
2018-08-19T19:04:34.710Z,39.48
2018-08-19T19:07:04.117Z,39.81
2018-08-19T19:09:42.092Z,40.29
2018-08-19T19:12:11.469Z,39.89
2018-08-19T19:14:40.845Z,42.33
2018-08-19T19:17:10.325Z,40.58
2018-08-19T19:19:43.733Z,42.60
2018-08-19T19:22:13.089Z,42.80
2018-08-19T19:24:42.701Z,42.28
2018-08-19T19:27:12.251Z,41.74
2018-08-19T19:29:43.503Z,41.78
2018-08-19T19:32:23.266Z,41.90
2018-08-19T19:34:52.769Z,42.00
2018-08-19T19:37:22.423Z,41.90
2018-08-19T19:39:56.628Z,42.27
2018-08-19T19:42:26.040Z,43.32
2018-08-19T19:44:55.410Z,43.96
2018-08-19T19:47:24.814Z,43.16
2018-08-19T19:49:57.785Z,43.32
2018-08-19T19:52:27.540Z,43.28
2018-08-19T19:54:57.162Z,44.25
2018-08-19T19:57:26.493Z,45.06
2018-08-19T19:59:55.840Z,43.59
2018-08-19T20:02:31.289Z,43.81
2018-08-19T20:05:01.209Z,44.40
2018-08-19T20:07:30.661Z,44.24
2018-08-19T20:10:00.074Z,44.96
2018-08-19T20:12:30.168Z,45.95
2018-08-19T20:15:01.442Z,45.47
2018-08-19T20:17:30.829Z,46.39
2018-08-19T20:20:00.300Z,46.67
2018-08-19T20:22:29.729Z,48.51
2018-08-19T20:24:59.058Z,49.38
2018-08-19T20:27:28.420Z,49.71
2018-08-19T20:29:57.752Z,50.17
2018-08-19T20:32:27.165Z,50.88
2018-08-19T20:34:56.489Z,50.46
2018-08-19T20:37:27.929Z,48.59
2018-08-19T20:39:57.293Z,50.36
2018-08-19T20:42:26.670Z,49.37
2018-08-19T20:44:56.021Z,46.75
2018-08-19T20:47:25.399Z,49.75
2018-08-19T20:49:54.741Z,49.12
2018-08-19T20:52:46.098Z,48.54
2018-08-19T20:55:15.885Z,48.37
2018-08-19T20:57:45.696Z,49.22
2018-08-19T21:00:15.061Z,48.18
2018-08-19T21:02:44.493Z,49.42
2018-08-19T21:05:13.854Z,47.56
2018-08-19T21:07:44.949Z,46.25
2018-08-19T21:10:14.318Z,47.04
2018-08-19T21:12:43.701Z,48.21
2018-08-19T21:15:13.089Z,47.54
2018-08-19T21:17:42.502Z,46.71
2018-08-19T21:20:11.860Z,47.96
2018-08-19T21:22:41.226Z,47.68
2018-08-19T21:25:10.616Z,47.71
2018-08-19T21:27:40.124Z,46.83
2018-08-19T21:30:09.615Z,46.90
2018-08-19T21:32:39.048Z,46.64
2018-08-19T21:35:09.251Z,47.51
2018-08-19T21:37:38.645Z,47.92
2018-08-19T21:40:08.045Z,47.15
2018-08-19T21:42:51.771Z,47.05
2018-08-19T21:45:21.385Z,47.60
2018-08-19T21:47:50.785Z,47.57
2018-08-19T21:50:20.121Z,48.34
2018-08-19T21:53:06.087Z,47.89
2018-08-19T21:55:37.596Z,51.08
2018-08-19T21:58:07.664Z,48.42
2018-08-19T22:00:39.304Z,48.25
2018-08-19T22:03:17.765Z,49.82
2018-08-19T22:05:47.904Z,48.75
2018-08-19T22:08:17.545Z,49.08
2018-08-19T22:10:48.165Z,48.75
2018-08-19T22:13:17.529Z,48.84
2018-08-19T22:15:47.593Z,47.99
2018-08-19T22:18:22.527Z,47.86
2018-08-19T22:21:10.519Z,48.23
2018-08-19T22:23:43.512Z,47.99
2018-08-19T22:26:14.161Z,47.84
2018-08-19T22:28:43.850Z,47.38
2018-08-19T22:31:26.153Z,48.09
2018-08-19T22:33:56.788Z,48.28
2018-08-19T22:36:26.509Z,49.52
2018-08-19T22:38:56.720Z,48.65
2018-08-19T22:41:27.665Z,48.12
2018-08-19T22:43:57.469Z,48.38
2018-08-19T22:46:27.502Z,48.96
2018-08-19T22:48:57.508Z,48.54
2018-08-19T22:51:32.545Z,49.15
2018-08-19T22:54:01.887Z,49.20
2018-08-19T22:56:31.238Z,48.81
2018-08-19T22:59:00.596Z,49.40
2018-08-19T23:01:35.104Z,49.74
2018-08-19T23:04:04.793Z,49.02
2018-08-19T23:06:34.592Z,49.69
2018-08-19T23:09:04.939Z,50.13
2018-08-19T23:11:39.625Z,48.98
2018-08-19T23:14:26.117Z,49.42
2018-08-19T23:16:55.604Z,49.22
2018-08-19T23:19:25.000Z,49.18
2018-08-19T23:21:54.352Z,49.13
2018-08-19T23:24:23.717Z,49.28
2018-08-19T23:26:53.056Z,49.08
2018-08-19T23:29:22.512Z,49.54
2018-08-19T23:31:51.866Z,49.20
2018-08-19T23:34:21.321Z,48.99
2018-08-19T23:36:50.672Z,49.11
2018-08-19T23:39:20.127Z,49.95
2018-08-19T23:41:49.509Z,50.20
2018-08-19T23:44:18.937Z,50.10
2018-08-19T23:46:48.281Z,49.94
2018-08-19T23:49:17.736Z,50.49
2018-08-19T23:51:47.054Z,49.55
2018-08-19T23:54:16.401Z,49.68
2018-08-19T23:56:45.729Z,50.29
2018-08-19T23:59:21.237Z,50.38
